createdAt,value
2022-10-28T00:01:22.135Z,14.63
2022-10-28T00:03:52.088Z,11.88
2022-10-28T00:06:25.313Z,20.58
2022-10-28T00:08:52.959Z,18.63
2022-10-28T00:11:22.935Z,16.42
2022-10-28T00:13:52.671Z,18.15
2022-10-28T00:16:26.051Z,14.02
2022-10-28T00:18:54.398Z,16.70
2022-10-28T00:21:25.273Z,17.65
2022-10-28T00:23:52.953Z,12.57
2022-10-28T00:26:31.635Z,18.10
2022-10-28T00:29:04.627Z,11.75
2022-10-28T00:31:32.674Z,13.43
2022-10-28T00:34:02.081Z,10.43
2022-10-28T00:36:32.234Z,20.30
2022-10-28T00:39:00.336Z,10.30
2022-10-28T00:41:33.212Z,13.00
2022-10-28T00:44:38.228Z,14.98
2022-10-28T00:47:21.022Z,12.95
2022-10-28T00:49:49.900Z,19.05
2022-10-28T00:52:22.317Z,13.93
2022-10-28T00:54:50.943Z,14.65
2022-10-28T00:57:25.881Z,11.73
2022-10-28T00:59:54.248Z,14.98
2022-10-28T01:02:21.852Z,13.40
2022-10-28T01:04:49.714Z,11.15
2022-10-28T01:07:17.794Z,14.73
2022-10-28T01:09:45.439Z,15.85
2022-10-28T01:12:50.357Z,11.68
2022-10-28T01:15:44.877Z,18.42
2022-10-28T01:18:30.804Z,12.35
2022-10-28T01:21:20.596Z,15.07
2022-10-28T01:24:32.951Z,15.13
2022-10-28T01:27:39.986Z,12.45
2022-10-28T01:30:22.105Z,15.52
2022-10-28T01:33:25.223Z,10.95
2022-10-28T01:36:20.666Z,14.98
2022-10-28T01:39:06.398Z,12.32
2022-10-28T01:42:02.267Z,15.25
2022-10-28T01:44:33.214Z,12.82
2022-10-28T01:47:22.936Z,15.43
2022-10-28T01:50:00.548Z,15.35
2022-10-28T01:52:30.407Z,14.23
2022-10-28T01:55:15.485Z,11.23
2022-10-28T01:57:43.837Z,15.68
2022-10-28T02:00:11.622Z,18.15
2022-10-28T02:02:39.967Z,15.32
2022-10-28T02:05:42.091Z,12.13
2022-10-28T02:08:18.409Z,15.43
2022-10-28T02:11:00.717Z,14.10
2022-10-28T02:14:06.086Z,15.82
2022-10-28T02:17:10.961Z,16.65
2022-10-28T02:19:53.495Z,12.90
2022-10-28T02:22:41.095Z,15.77
2022-10-28T02:25:20.865Z,13.25
2022-10-28T02:28:00.393Z,13.63
2022-10-28T02:30:41.478Z,12.30
2022-10-28T02:33:14.872Z,14.23
2022-10-28T02:35:48.973Z,17.63
2022-10-28T02:38:21.125Z,12.45
2022-10-28T02:40:53.947Z,18.85
2022-10-28T02:43:23.881Z,17.30
2022-10-28T02:45:55.987Z,14.55
2022-10-28T02:48:28.618Z,16.30
2022-10-28T02:51:07.682Z,16.60
2022-10-28T02:53:59.730Z,14.88
2022-10-28T02:56:30.319Z,19.38
2022-10-28T02:58:57.589Z,17.52
2022-10-28T03:01:25.055Z,15.40
2022-10-28T03:03:52.626Z,16.10
2022-10-28T03:06:19.824Z,17.17
2022-10-28T03:08:47.064Z,14.82
2022-10-28T03:11:14.539Z,19.75
2022-10-28T03:13:41.639Z,23.05
2022-10-28T03:16:08.906Z,20.48
2022-10-28T03:18:36.012Z,17.13
2022-10-28T03:21:03.294Z,21.33
2022-10-28T03:23:30.473Z,15.27
2022-10-28T03:25:57.616Z,21.35
2022-10-28T03:28:24.812Z,13.27
2022-10-28T03:30:52.030Z,17.35
2022-10-28T03:33:19.165Z,15.10
2022-10-28T03:35:46.373Z,16.27
2022-10-28T03:38:13.584Z,15.90
2022-10-28T03:40:40.800Z,17.65
2022-10-28T03:43:08.042Z,19.63
2022-10-28T03:45:35.328Z,20.85
2022-10-28T03:48:02.465Z,15.15
2022-10-28T03:50:29.871Z,14.13
2022-10-28T03:52:57.081Z,17.85
2022-10-28T03:55:25.808Z,18.52
2022-10-28T03:57:53.462Z,15.43
2022-10-28T04:00:21.259Z,14.32
2022-10-28T04:02:52.552Z,14.60
2022-10-28T04:05:20.926Z,14.15
2022-10-28T04:07:48.411Z,11.52
2022-10-28T04:10:15.889Z,12.50
2022-10-28T04:12:43.212Z,14.50
2022-10-28T04:15:10.494Z,19.08
2022-10-28T04:17:37.648Z,13.93
2022-10-28T04:20:05.276Z,17.40
2022-10-28T04:22:32.620Z,16.35
2022-10-28T04:24:59.811Z,13.68
2022-10-28T04:27:27.057Z,15.73
2022-10-28T04:29:54.211Z,14.27
2022-10-28T04:32:21.485Z,15.95
2022-10-28T04:34:48.694Z,13.88
2022-10-28T04:37:20.395Z,15.73
2022-10-28T04:39:48.435Z,14.68
2022-10-28T04:42:16.843Z,12.30
2022-10-28T04:44:43.983Z,12.90
2022-10-28T04:47:11.189Z,13.80
2022-10-28T04:49:38.908Z,19.92
2022-10-28T04:52:06.713Z,18.27
2022-10-28T04:54:33.878Z,13.25
2022-10-28T04:57:01.302Z,15.63
2022-10-28T04:59:28.523Z,14.15
2022-10-28T05:01:55.811Z,15.93
2022-10-28T05:04:23.157Z,14.77
2022-10-28T05:06:50.558Z,17.45
2022-10-28T05:09:17.861Z,20.75
2022-10-28T05:11:45.322Z,13.73
2022-10-28T05:14:12.475Z,14.55
2022-10-28T05:16:39.674Z,20.90
2022-10-28T05:19:06.893Z,16.77
2022-10-28T05:21:34.143Z,16.75
2022-10-28T05:24:01.719Z,19.70
2022-10-28T05:26:28.972Z,15.93
2022-10-28T05:28:56.160Z,20.13
2022-10-28T05:31:23.415Z,15.60
2022-10-28T05:33:50.938Z,15.43
2022-10-28T05:36:18.210Z,15.63
2022-10-28T05:38:45.758Z,15.35
2022-10-28T05:41:12.975Z,16.75
2022-10-28T05:43:40.182Z,16.58
2022-10-28T05:46:07.280Z,18.83
2022-10-28T05:48:34.546Z,21.40
2022-10-28T05:51:01.705Z,15.73
2022-10-28T05:53:28.990Z,17.38
2022-10-28T05:55:56.346Z,16.90
2022-10-28T05:58:23.788Z,19.75
2022-10-28T06:00:51.034Z,18.17
2022-10-28T06:03:18.474Z,18.02
2022-10-28T06:05:46.358Z,17.80
2022-10-28T06:08:13.873Z,12.27
2022-10-28T06:10:41.859Z,11.55
2022-10-28T06:13:08.228Z,18.13
2022-10-28T06:15:35.364Z,16.40
2022-10-28T06:18:02.639Z,14.50
2022-10-28T06:20:29.814Z,13.15
2022-10-28T06:22:57.066Z,13.15
2022-10-28T06:25:25.663Z,20.73
2022-10-28T06:27:57.264Z,16.60
2022-10-28T06:30:25.977Z,15.80
2022-10-28T06:32:56.768Z,16.23
2022-10-28T06:35:24.196Z,10.00
2022-10-28T06:37:56.009Z,15.63
2022-10-28T06:40:24.531Z,13.50
2022-10-28T06:43:05.613Z,8.90
2022-10-28T06:45:33.872Z,9.80
2022-10-28T06:48:05.442Z,13.10
2022-10-28T06:50:34.559Z,10.70
2022-10-28T06:53:02.428Z,13.95
2022-10-28T06:55:29.763Z,11.55
2022-10-28T06:58:01.657Z,11.15
2022-10-28T07:02:58.880Z,10.23
2022-10-28T07:05:27.961Z,8.27
2022-10-28T07:07:55.859Z,11.32
2022-10-28T07:10:23.259Z,8.32
2022-10-28T07:12:52.412Z,10.98
2022-10-28T07:15:19.826Z,12.38
2022-10-28T07:17:55.792Z,11.18
2022-10-28T07:20:24.749Z,10.52
2022-10-28T07:23:00.006Z,11.40
2022-10-28T07:25:29.291Z,9.50
2022-10-28T07:28:00.182Z,13.90
2022-10-28T07:30:28.533Z,12.52
2022-10-28T07:32:57.141Z,10.07
2022-10-28T07:35:24.985Z,11.48
2022-10-28T07:37:52.131Z,7.95
2022-10-28T07:40:21.020Z,11.40
2022-10-28T07:42:48.708Z,10.30
2022-10-28T07:45:16.241Z,10.68
2022-10-28T07:47:44.730Z,11.32
2022-10-28T07:50:12.580Z,14.68
2022-10-28T07:52:39.946Z,11.68
2022-10-28T07:55:08.820Z,13.27
2022-10-28T07:57:36.170Z,8.90
2022-10-28T08:00:05.714Z,8.48
2022-10-28T08:02:32.994Z,9.45
2022-10-28T08:05:02.151Z,9.75
2022-10-28T08:07:29.350Z,7.47
2022-10-28T08:09:57.008Z,8.68
2022-10-28T08:12:24.941Z,7.22
2022-10-28T08:14:52.313Z,7.63
2022-10-28T08:17:19.501Z,9.15
2022-10-28T08:19:46.714Z,7.03
2022-10-28T08:22:13.927Z,7.70
2022-10-28T08:24:41.098Z,9.73
2022-10-28T08:27:08.356Z,8.38
2022-10-28T08:29:35.495Z,8.40
2022-10-28T08:32:02.968Z,5.82
2022-10-28T08:34:31.448Z,9.30
2022-10-28T08:36:58.829Z,9.50
2022-10-28T08:39:26.075Z,8.68
2022-10-28T08:42:32.401Z,7.78
2022-10-28T08:45:25.373Z,5.13
2022-10-28T08:48:27.574Z,6.97
2022-10-28T08:51:10.623Z,6.25
2022-10-28T08:53:46.531Z,5.40
2022-10-28T08:56:37.637Z,8.00
2022-10-28T08:59:07.619Z,7.72
2022-10-28T09:01:46.602Z,7.18
2022-10-28T09:04:26.127Z,6.10
2022-10-28T09:06:53.988Z,12.88
2022-10-28T09:09:22.951Z,6.78
2022-10-28T09:12:05.275Z,7.13
2022-10-28T09:14:54.625Z,7.45
2022-10-28T09:17:35.299Z,4.47
2022-10-28T09:20:29.989Z,5.43
2022-10-28T09:22:59.766Z,5.30
2022-10-28T09:25:39.249Z,4.95
2022-10-28T09:28:44.053Z,4.13
2022-10-28T09:31:30.847Z,6.20
2022-10-28T09:34:13.076Z,4.50
2022-10-28T09:36:45.671Z,4.82
2022-10-28T09:39:25.301Z,4.38
2022-10-28T09:41:57.660Z,4.38
2022-10-28T09:44:39.331Z,5.82
2022-10-28T09:47:34.632Z,3.85
2022-10-28T09:50:07.633Z,5.53
2022-10-28T09:52:43.145Z,5.38
2022-10-28T09:55:22.009Z,5.50
2022-10-28T09:57:49.516Z,6.10
2022-10-28T10:00:17.890Z,3.17
2022-10-28T10:02:45.704Z,3.53
2022-10-28T10:05:17.332Z,3.30
2022-10-28T10:07:49.619Z,2.95
2022-10-28T10:10:27.127Z,3.15
2022-10-28T10:12:59.441Z,4.72
2022-10-28T10:15:38.443Z,3.55
2022-10-28T10:18:11.528Z,3.03
2022-10-28T10:20:58.678Z,5.53
2022-10-28T10:23:37.676Z,4.30
2022-10-28T10:26:13.681Z,4.60
2022-10-28T10:28:48.325Z,3.20
2022-10-28T10:31:27.208Z,4.78
2022-10-28T10:33:56.475Z,4.07
2022-10-28T10:36:28.842Z,6.05
2022-10-28T10:39:01.694Z,5.50
2022-10-28T10:41:42.096Z,3.40
2022-10-28T10:44:21.223Z,4.13
2022-10-28T10:47:08.315Z,5.53
2022-10-28T10:49:36.422Z,5.35
2022-10-28T10:52:23.784Z,3.85
2022-10-28T10:55:21.269Z,3.45
2022-10-28T10:57:49.370Z,3.63
2022-10-28T11:00:20.945Z,4.10
2022-10-28T11:02:52.157Z,3.83
2022-10-28T11:05:27.198Z,3.28
2022-10-28T11:08:05.131Z,3.15
2022-10-28T11:10:34.828Z,3.47
2022-10-28T11:13:24.047Z,2.92
2022-10-28T11:16:07.661Z,2.53
2022-10-28T11:18:43.847Z,3.13
2022-10-28T11:21:43.213Z,2.90
2022-10-28T11:24:36.285Z,2.20
2022-10-28T11:27:15.655Z,2.50
2022-10-28T11:29:43.061Z,1.90
2022-10-28T11:33:01.391Z,2.15
2022-10-28T11:35:47.716Z,2.13
2022-10-28T11:38:44.717Z,2.78
2022-10-28T11:41:31.974Z,3.65
2022-10-28T11:44:05.018Z,3.17
2022-10-28T11:46:35.676Z,2.08
2022-10-28T11:49:20.608Z,3.38
2022-10-28T11:51:53.570Z,3.63
2022-10-28T11:54:29.628Z,2.78
2022-10-28T11:57:13.448Z,2.45
2022-10-28T12:00:14.183Z,2.38
2022-10-28T12:03:19.135Z,2.65
2022-10-28T12:06:01.662Z,2.83
2022-10-28T12:08:41.313Z,2.10
2022-10-28T12:11:25.662Z,2.00
2022-10-28T12:14:16.008Z,4.15
2022-10-28T12:16:58.672Z,2.33
2022-10-28T12:19:41.999Z,2.55
2022-10-28T12:22:23.268Z,2.58
2022-10-28T12:24:53.124Z,2.95
2022-10-28T12:27:27.933Z,3.72
2022-10-28T12:30:09.298Z,4.07
2022-10-28T12:32:38.407Z,2.78
2022-10-28T12:35:17.806Z,3.65
2022-10-28T12:38:16.935Z,2.58
2022-10-28T12:41:01.816Z,2.72
2022-10-28T12:44:06.111Z,3.65
2022-10-28T12:49:42.020Z,4.05
2022-10-28T12:52:30.362Z,7.15
2022-10-28T12:55:03.643Z,3.70
2022-10-28T12:57:34.266Z,3.90
2022-10-28T13:00:26.795Z,4.57
2022-10-28T13:03:07.777Z,3.78
2022-10-28T13:05:59.751Z,4.20
2022-10-28T13:09:01.981Z,3.20
2022-10-28T13:11:51.086Z,3.65
2022-10-28T13:14:27.336Z,3.53
2022-10-28T13:16:54.516Z,3.88
2022-10-28T13:19:31.810Z,3.80
2022-10-28T13:22:32.967Z,3.63
2022-10-28T13:25:18.873Z,4.45
2022-10-28T13:27:46.716Z,6.72
2022-10-28T13:30:18.695Z,5.18
2022-10-28T13:32:45.953Z,3.80
2022-10-28T13:35:26.687Z,3.85
2022-10-28T13:37:56.216Z,3.85
2022-10-28T13:40:43.771Z,3.50
2022-10-28T13:43:20.355Z,3.10
2022-10-28T13:45:48.541Z,3.78
2022-10-28T13:48:30.816Z,2.80
2022-10-28T13:51:10.124Z,3.42
2022-10-28T13:53:46.584Z,4.90
2022-10-28T13:56:45.942Z,3.30
2022-10-28T13:59:13.215Z,3.40
2022-10-28T14:02:01.883Z,3.30
2022-10-28T14:04:39.772Z,3.45
2022-10-28T14:07:21.744Z,4.82
2022-10-28T14:09:54.400Z,3.42
2022-10-28T14:12:24.483Z,3.58
2022-10-28T14:15:03.344Z,6.07
2022-10-28T14:17:37.805Z,4.68
2022-10-28T14:20:28.096Z,3.65
2022-10-28T14:22:56.409Z,5.28
2022-10-28T14:25:44.689Z,3.78
2022-10-28T14:28:30.265Z,3.72
2022-10-28T14:31:12.347Z,3.60
2022-10-28T14:33:44.638Z,3.50
2022-10-28T14:36:17.908Z,3.60
2022-10-28T14:38:53.897Z,4.00
2022-10-28T14:41:38.623Z,3.38
2022-10-28T14:44:17.958Z,3.22
2022-10-28T14:46:53.986Z,3.47
2022-10-28T14:49:26.014Z,3.92
2022-10-28T14:51:54.262Z,3.97
2022-10-28T14:54:40.631Z,3.67
2022-10-28T14:57:08.555Z,3.92
2022-10-28T14:59:44.454Z,5.43
2022-10-28T15:02:19.053Z,3.25
2022-10-28T15:04:56.675Z,3.10
2022-10-28T15:07:24.129Z,3.40
2022-10-28T15:09:53.753Z,3.70
2022-10-28T15:12:23.470Z,3.78
2022-10-28T15:14:52.818Z,3.85
2022-10-28T15:17:24.405Z,3.97
2022-10-28T15:19:57.308Z,4.35
2022-10-28T15:22:30.940Z,4.60
2022-10-28T15:25:00.853Z,4.05
2022-10-28T15:27:31.126Z,4.78
2022-10-28T15:29:58.588Z,6.68
2022-10-28T15:32:31.823Z,7.30
2022-10-28T15:34:59.717Z,5.65
2022-10-28T15:37:35.014Z,5.25
2022-10-28T15:40:21.022Z,8.18
2022-10-28T15:42:59.144Z,5.10
2022-10-28T15:45:32.016Z,5.50
2022-10-28T15:48:01.103Z,5.50
2022-10-28T15:50:34.160Z,4.90
2022-10-28T15:53:38.378Z,5.18
2022-10-28T15:56:14.560Z,5.47
2022-10-28T15:59:00.417Z,6.03
2022-10-28T16:01:39.782Z,6.28
2022-10-28T16:04:22.968Z,7.88
2022-10-28T16:06:53.365Z,7.25
2022-10-28T16:09:29.521Z,8.60
2022-10-28T16:12:02.004Z,7.55
2022-10-28T16:14:34.637Z,7.95
2022-10-28T16:17:23.982Z,8.73
2022-10-28T16:20:19.299Z,9.00
2022-10-28T16:22:47.585Z,8.95
2022-10-28T16:25:20.766Z,8.38
2022-10-28T16:27:48.794Z,7.47
2022-10-28T16:30:16.388Z,8.82
2022-10-28T16:32:50.966Z,5.95
2022-10-28T16:35:21.352Z,8.23
2022-10-28T16:37:53.767Z,8.93
2022-10-28T16:40:50.833Z,8.80
2022-10-28T16:43:29.793Z,7.28
2022-10-28T16:45:59.595Z,8.50
2022-10-28T16:48:29.491Z,7.00
2022-10-28T16:51:01.682Z,6.25
2022-10-28T16:53:29.218Z,7.68
2022-10-28T16:55:59.290Z,6.32
2022-10-28T16:58:28.205Z,6.85
2022-10-28T17:00:56.295Z,6.22
2022-10-28T17:03:23.624Z,5.65
2022-10-28T17:05:50.927Z,5.75
2022-10-28T17:08:36.042Z,6.25
2022-10-28T17:11:05.707Z,5.18
2022-10-28T17:13:34.608Z,5.30
2022-10-28T17:16:01.853Z,5.80
2022-10-28T17:18:29.147Z,4.85
2022-10-28T17:21:01.336Z,5.03
2022-10-28T17:23:29.875Z,5.45
2022-10-28T17:26:01.817Z,4.28
2022-10-28T17:28:29.878Z,7.03
2022-10-28T17:31:08.270Z,5.15
2022-10-28T17:33:35.745Z,7.47
2022-10-28T17:36:10.616Z,5.53
2022-10-28T17:38:38.070Z,4.60
2022-10-28T17:41:05.958Z,4.82
2022-10-28T17:43:33.361Z,4.63
2022-10-28T17:46:07.423Z,5.38
2022-10-28T17:48:35.053Z,4.72
2022-10-28T17:51:02.382Z,5.05
2022-10-28T17:53:29.900Z,5.32
2022-10-28T17:56:01.865Z,6.10
2022-10-28T17:58:29.607Z,5.22
2022-10-28T18:01:01.796Z,6.45
2022-10-28T18:03:32.847Z,7.20
2022-10-28T18:06:04.370Z,6.15
2022-10-28T18:08:39.750Z,5.55
2022-10-28T18:11:08.972Z,5.38
2022-10-28T18:13:38.399Z,5.53
2022-10-28T18:16:11.492Z,6.90
2022-10-28T18:18:42.456Z,5.43
2022-10-28T18:21:11.776Z,4.88
2022-10-28T18:23:41.163Z,6.15
2022-10-28T18:26:15.685Z,4.38
2022-10-28T18:28:44.593Z,4.10
2022-10-28T18:31:19.684Z,4.50
2022-10-28T18:33:47.312Z,4.47
2022-10-28T18:36:20.995Z,4.28
2022-10-28T18:38:49.215Z,4.10
2022-10-28T18:41:25.043Z,4.85
2022-10-28T18:44:03.045Z,4.43
2022-10-28T18:46:33.748Z,4.53
2022-10-28T18:51:34.876Z,4.55
2022-10-28T18:54:02.912Z,4.80
2022-10-28T18:56:31.024Z,5.15
2022-10-28T18:58:59.013Z,5.30
2022-10-28T19:01:28.619Z,4.88
2022-10-28T19:04:00.952Z,5.95
2022-10-28T19:06:32.666Z,5.72
2022-10-28T19:09:03.637Z,5.65
2022-10-28T19:11:32.074Z,5.32
2022-10-28T19:14:00.985Z,5.70
2022-10-28T19:16:29.056Z,6.05
2022-10-28T19:19:00.663Z,6.25
2022-10-28T19:21:28.621Z,5.68
2022-10-28T19:23:56.503Z,6.18
2022-10-28T19:26:24.865Z,4.80
2022-10-28T19:28:52.538Z,5.28
2022-10-28T19:31:22.375Z,5.03
2022-10-28T19:33:49.754Z,4.50
2022-10-28T19:36:19.912Z,4.65
2022-10-28T19:38:49.254Z,4.63
2022-10-28T19:41:19.173Z,4.63
2022-10-28T19:43:47.432Z,4.10
2022-10-28T19:46:15.880Z,4.40
2022-10-28T19:48:46.361Z,4.63
2022-10-28T19:51:15.746Z,4.38
2022-10-28T19:53:50.894Z,5.30
2022-10-28T19:56:19.861Z,5.03
2022-10-28T19:58:51.534Z,4.55
2022-10-28T20:01:20.678Z,4.80
2022-10-28T20:03:50.558Z,4.32
2022-10-28T20:06:20.441Z,4.32
2022-10-28T20:08:49.460Z,4.35
2022-10-28T20:11:21.368Z,3.47
2022-10-28T20:13:57.012Z,4.03
2022-10-28T20:16:25.405Z,3.80
2022-10-28T20:18:55.085Z,3.90
2022-10-28T20:21:23.663Z,4.00
2022-10-28T20:23:55.546Z,3.45
2022-10-28T20:26:25.965Z,3.70
2022-10-28T20:28:53.615Z,3.55
2022-10-28T20:31:23.147Z,3.42
2022-10-28T20:33:52.887Z,3.90
2022-10-28T20:36:41.345Z,3.80
2022-10-28T20:39:17.222Z,3.40
2022-10-28T20:41:46.514Z,3.80
2022-10-28T20:44:13.930Z,3.30
2022-10-28T20:46:41.711Z,3.63
2022-10-28T20:49:09.046Z,3.63
2022-10-28T20:51:36.982Z,3.53
2022-10-28T20:54:04.397Z,3.97
2022-10-28T20:56:34.970Z,3.40
2022-10-28T20:59:02.555Z,3.70
2022-10-28T21:01:40.817Z,3.60
2022-10-28T21:04:10.834Z,3.53
2022-10-28T21:06:38.763Z,3.72
2022-10-28T21:09:06.804Z,3.40
2022-10-28T21:11:34.092Z,3.47
2022-10-28T21:14:02.117Z,3.88
2022-10-28T21:16:30.042Z,4.13
2022-10-28T21:18:59.223Z,3.40
2022-10-28T21:21:26.794Z,3.60
2022-10-28T21:23:54.671Z,3.30
2022-10-28T21:26:22.308Z,3.92
2022-10-28T21:28:52.157Z,3.50
2022-10-28T21:31:21.415Z,3.17
2022-10-28T21:36:23.066Z,3.30
2022-10-28T21:38:55.338Z,3.83
2022-10-28T21:41:24.074Z,3.00
2022-10-28T21:43:52.642Z,3.22
2022-10-28T21:46:21.314Z,3.10
2022-10-28T21:48:48.772Z,3.00
2022-10-28T21:51:17.314Z,3.08
2022-10-28T21:53:45.696Z,2.95
2022-10-28T21:56:19.426Z,2.92
2022-10-28T21:58:49.044Z,2.60
2022-10-28T22:01:22.171Z,3.03
2022-10-28T22:03:54.699Z,2.65
2022-10-28T22:06:22.679Z,2.58
2022-10-28T22:08:52.209Z,2.50
2022-10-28T22:11:21.836Z,2.50
2022-10-28T22:13:56.409Z,2.13
2022-10-28T22:16:23.816Z,2.22
2022-10-28T22:18:51.050Z,2.40
2022-10-28T22:21:21.377Z,1.85
2022-10-28T22:23:49.459Z,1.60
2022-10-28T22:26:22.488Z,1.63
2022-10-28T22:28:50.786Z,1.20
2022-10-28T22:31:20.761Z,1.33
2022-10-28T22:33:48.817Z,1.10
2022-10-28T22:36:18.491Z,1.10
2022-10-28T22:38:46.314Z,1.00
2022-10-28T22:41:23.983Z,1.00
2022-10-28T22:43:53.681Z,1.65
2022-10-28T22:46:22.703Z,0.50
2022-10-28T22:48:49.987Z,0.50
2022-10-28T22:51:18.234Z,0.55
2022-10-28T22:53:45.610Z,0.50
2022-10-28T22:56:21.681Z,0.75
2022-10-28T22:58:52.786Z,0.60
2022-10-28T23:01:20.944Z,0.43
2022-10-28T23:03:50.444Z,0.98
2022-10-28T23:06:19.216Z,1.02
2022-10-28T23:08:46.826Z,0.60
2022-10-28T23:11:16.144Z,0.65
2022-10-28T23:13:43.821Z,1.13
2022-10-28T23:16:13.670Z,0.45
2022-10-28T23:18:41.576Z,0.45
2022-10-28T23:21:17.755Z,0.40
2022-10-28T23:23:51.336Z,0.50
2022-10-28T23:26:21.692Z,0.50
2022-10-28T23:28:54.052Z,0.50
2022-10-28T23:31:22.321Z,0.82
2022-10-28T23:33:50.336Z,0.50
2022-10-28T23:36:17.685Z,0.40
2022-10-28T23:38:44.967Z,0.43
2022-10-28T23:41:16.321Z,0.40
2022-10-28T23:43:43.741Z,0.40
2022-10-28T23:46:11.314Z,1.27
2022-10-28T23:48:38.644Z,0.40
2022-10-28T23:51:06.512Z,0.40
2022-10-28T23:53:34.603Z,0.40
2022-10-28T23:56:01.939Z,0.50
2022-10-28T23:58:29.124Z,0.50
